Time;durP1;ratioP1;P1;durP2;ratioP2;P2;SDS_P1;SDS_P2;PMS_P1;PMS_P2;Temp;Humidity;BMP_temperature;BMP_pressure;BME280_temperature;BME280_humidity;BME280_pressure;Samples;Min_cycle;Max_cycle;Signal;HPM_P1;HPM_P2
2022/05/23 00:01:50;;;;;;;3.90;1.40;;;;;;;;;;5031510;28;20041;-65
2022/05/23 00:04:16;;;;;;;3.40;1.30;;;;;;;;;;5031955;28;20129;-64
2022/05/23 00:06:43;;;;;;;4.63;1.45;;;;;;;;;;5028371;28;20095;-65
2022/05/23 00:09:11;;;;;;;3.03;1.10;;;;;;;;;;5031958;28;20582;-65
2022/05/23 00:11:38;;;;;;;4.10;2.00;;;;;;;;;;5029727;28;20038;-65
2022/05/23 00:14:05;;;;;;;2.63;1.00;;;;;;;;;;5016358;28;20037;-65
2022/05/23 00:16:37;;;;;;;3.70;1.20;;;;;;;;;;5015816;28;20060;-65
2022/05/23 00:19:04;;;;;;;4.68;1.38;;;;;;;;;;5031750;28;20103;-60
2022/05/23 00:21:30;;;;;;;2.60;0.98;;;;;;;;;;5028885;28;20737;-63
2022/05/23 00:23:57;;;;;;;3.35;1.20;;;;;;;;;;5029653;28;20057;-63
2022/05/23 00:26:24;;;;;;;3.78;1.17;;;;;;;;;;5029569;28;20511;-64
2022/05/23 00:28:51;;;;;;;6.45;1.30;;;;;;;;;;5032342;28;20044;-62
2022/05/23 00:31:18;;;;;;;3.58;1.50;;;;;;;;;;5033727;28;20044;-64
2022/05/23 00:36:31;;;;;;;5.03;1.40;;;;;;;;;;5022242;28;20045;-64
2022/05/23 00:38:58;;;;;;;3.70;1.10;;;;;;;;;;5014605;28;20671;-64
2022/05/23 00:44:20;;;;;;;5.72;1.30;;;;;;;;;;5012803;28;20048;-64
2022/05/23 00:46:54;;;;;;;3.03;1.00;;;;;;;;;;5033071;28;20075;-63
2022/05/23 00:49:23;;;;;;;3.38;1.20;;;;;;;;;;5035269;28;20045;-64
2022/05/23 00:51:49;;;;;;;2.60;1.10;;;;;;;;;;5036348;28;20087;-64
2022/05/23 00:54:16;;;;;;;4.63;1.35;;;;;;;;;;5037801;28;20048;-63
2022/05/23 00:56:45;;;;;;;3.70;1.50;;;;;;;;;;5033968;28;20622;-65
2022/05/23 00:59:14;;;;;;;3.50;1.48;;;;;;;;;;5040153;28;20079;-65
2022/05/23 01:01:41;;;;;;;5.00;2.30;;;;;;;;;;5047543;28;20099;-63
2022/05/23 01:04:08;;;;;;;3.88;1.42;;;;;;;;;;5039220;28;20091;-64
2022/05/23 01:06:35;;;;;;;3.30;1.30;;;;;;;;;;5030460;28;20033;-63
2022/05/23 01:09:03;;;;;;;4.75;1.42;;;;;;;;;;5033610;28;20094;-64
2022/05/23 01:11:30;;;;;;;3.40;1.15;;;;;;;;;;5037407;28;20056;-63
2022/05/23 01:13:56;;;;;;;4.28;0.95;;;;;;;;;;5047094;28;20029;-64
2022/05/23 01:16:26;;;;;;;2.70;1.10;;;;;;;;;;5031318;28;20048;-66
2022/05/23 01:18:53;;;;;;;6.05;1.27;;;;;;;;;;5032477;28;20610;-64
2022/05/23 01:21:26;;;;;;;4.50;1.15;;;;;;;;;;5030391;28;20056;-64
2022/05/23 01:23:59;;;;;;;3.75;1.20;;;;;;;;;;5031220;28;20061;-63
2022/05/23 01:26:26;;;;;;;5.60;1.30;;;;;;;;;;5030549;28;20086;-64
2022/05/23 01:28:52;;;;;;;2.95;1.13;;;;;;;;;;5032076;28;20167;-63
2022/05/23 01:31:19;;;;;;;3.95;1.50;;;;;;;;;;5032778;28;20489;-63
2022/05/23 01:33:46;;;;;;;3.75;1.30;;;;;;;;;;5034483;28;20034;-63
2022/05/23 01:36:14;;;;;;;2.92;1.17;;;;;;;;;;5033973;28;20118;-63
2022/05/23 01:38:41;;;;;;;3.53;1.20;;;;;;;;;;5032879;28;20119;-62
2022/05/23 01:41:08;;;;;;;3.38;1.30;;;;;;;;;;5039151;28;20560;-63
2022/05/23 01:43:34;;;;;;;4.28;1.20;;;;;;;;;;5033769;28;20033;-63
2022/05/23 01:46:01;;;;;;;5.22;1.30;;;;;;;;;;5036049;28;21679;-63
2022/05/23 01:48:28;;;;;;;4.72;1.27;;;;;;;;;;5051315;28;20051;-63
2022/05/23 01:50:55;;;;;;;3.97;1.40;;;;;;;;;;5051758;28;20048;-62
2022/05/23 01:53:22;;;;;;;6.72;3.13;;;;;;;;;;5050174;28;20033;-63
2022/05/23 01:55:48;;;;;;;3.33;1.23;;;;;;;;;;5034410;28;20098;-63
2022/05/23 02:01:12;;;;;;;3.00;1.27;;;;;;;;;;5039084;28;20586;-64
2022/05/23 02:01:14;;;;;;;3.97;0.90;;;;;;;;;;5050297;28;20056;-64
2022/05/23 02:03:41;;;;;;;3.90;1.33;;;;;;;;;;5051984;28;20082;-63
2022/05/23 02:06:08;;;;;;;3.00;1.20;;;;;;;;;;5050058;28;20517;-64
2022/05/23 02:08:34;;;;;;;3.20;1.13;;;;;;;;;;5050158;28;20059;-64
2022/05/23 02:11:01;;;;;;;6.60;2.97;;;;;;;;;;5051388;28;20047;-64
2022/05/23 02:13:28;;;;;;;4.35;1.30;;;;;;;;;;5049918;28;20037;-62
2022/05/23 02:15:55;;;;;;;3.72;1.30;;;;;;;;;;5051562;28;20039;-63
2022/05/23 02:18:21;;;;;;;5.65;1.38;;;;;;;;;;5050266;28;20036;-63
2022/05/23 02:20:48;;;;;;;3.40;1.38;;;;;;;;;;5054141;28;20056;-63
2022/05/23 02:23:15;;;;;;;3.72;1.17;;;;;;;;;;5053064;28;20041;-62
2022/05/23 02:25:41;;;;;;;3.67;1.48;;;;;;;;;;5051233;28;21580;-62
2022/05/23 02:28:09;;;;;;;3.00;1.10;;;;;;;;;;5051006;28;20037;-60
2022/05/23 02:30:35;;;;;;;3.50;1.40;;;;;;;;;;5049809;28;20143;-62
2022/05/23 02:33:02;;;;;;;3.05;1.08;;;;;;;;;;5051250;28;20083;-61
2022/05/23 02:35:29;;;;;;;4.72;1.33;;;;;;;;;;5049462;28;20041;-61
2022/05/23 02:37:56;;;;;;;4.10;1.40;;;;;;;;;;5050100;28;20036;-61
2022/05/23 02:40:23;;;;;;;3.70;1.40;;;;;;;;;;5054044;28;20400;-62
2022/05/23 02:42:50;;;;;;;4.38;1.75;;;;;;;;;;5052997;28;20041;-62
2022/05/23 02:45:17;;;;;;;4.28;1.67;;;;;;;;;;5051454;28;20561;-61
2022/05/23 02:47:44;;;;;;;3.97;1.58;;;;;;;;;;5052085;28;20451;-62
2022/05/23 02:50:11;;;;;;;3.13;1.10;;;;;;;;;;5051870;28;20037;-61
2022/05/23 02:52:39;;;;;;;4.75;1.45;;;;;;;;;;5051184;28;20119;-63
2022/05/23 02:55:06;;;;;;;3.85;1.52;;;;;;;;;;5065789;28;20040;-63
2022/05/23 02:57:33;;;;;;;4.15;1.48;;;;;;;;;;5054040;28;20040;-62
2022/05/23 03:00:00;;;;;;;3.17;1.10;;;;;;;;;;5053448;28;20052;-62
2022/05/23 03:05:14;;;;;;;6.72;3.20;;;;;;;;;;5055448;28;20074;-65
2022/05/23 03:07:41;;;;;;;7.45;5.13;;;;;;;;;;5039343;28;21980;-64
2022/05/23 03:10:07;;;;;;;8.55;3.85;;;;;;;;;;5054636;28;20040;-65
2022/05/23 03:12:34;;;;;;;12.82;6.63;;;;;;;;;;5052864;28;20037;-59
2022/05/23 03:15:02;;;;;;;4.95;2.28;;;;;;;;;;5054430;28;20047;-63
2022/05/23 03:17:28;;;;;;;5.53;1.70;;;;;;;;;;5051656;28;20067;-62
2022/05/23 03:19:55;;;;;;;6.70;2.83;;;;;;;;;;5053550;28;20056;-62
2022/05/23 03:27:52;;;;;;;4.15;2.25;;;;;;;;;;5054147;28;20090;-62
2022/05/23 03:30:22;;;;;;;5.05;2.15;;;;;;;;;;5052187;28;20041;-62
2022/05/23 03:32:50;;;;;;;6.20;1.98;;;;;;;;;;5051816;28;20098;-62
2022/05/23 03:35:20;;;;;;;4.53;1.90;;;;;;;;;;5051489;28;20105;-61
2022/05/23 03:37:46;;;;;;;8.52;2.30;;;;;;;;;;5052327;28;20086;-62
2022/05/23 03:40:13;;;;;;;4.82;2.08;;;;;;;;;;5051181;28;20109;-62
2022/05/23 03:42:41;;;;;;;4.70;2.17;;;;;;;;;;5052982;28;20033;-62
2022/05/23 03:45:08;;;;;;;9.63;2.45;;;;;;;;;;5052655;28;20044;-62
2022/05/23 03:47:35;;;;;;;4.80;2.22;;;;;;;;;;5052155;28;20040;-62
2022/05/23 03:50:01;;;;;;;5.30;2.17;;;;;;;;;;5050515;28;20140;-62
2022/05/23 03:52:28;;;;;;;6.47;2.65;;;;;;;;;;5054242;28;20120;-62
2022/05/23 03:54:55;;;;;;;8.27;3.50;;;;;;;;;;5054774;28;20086;-62
2022/05/23 03:57:23;;;;;;;10.52;4.95;;;;;;;;;;5053678;28;20067;-63
2022/05/23 03:59:52;;;;;;;9.43;4.93;;;;;;;;;;5054341;28;21358;-61
2022/05/23 04:02:20;;;;;;;9.68;5.95;;;;;;;;;;5053404;28;20056;-64
2022/05/23 04:04:52;;;;;;;12.32;7.03;;;;;;;;;;5053583;28;20761;-63
2022/05/23 04:07:22;;;;;;;12.98;7.70;;;;;;;;;;5056589;28;20544;-63
2022/05/23 04:09:51;;;;;;;10.27;5.20;;;;;;;;;;5045763;28;20037;-64
2022/05/23 04:12:18;;;;;;;7.65;4.30;;;;;;;;;;5055225;28;20515;-64
2022/05/23 04:14:45;;;;;;;7.78;3.42;;;;;;;;;;5044949;28;20044;-64
2022/05/23 04:17:12;;;;;;;4.55;2.67;;;;;;;;;;5053661;28;20044;-61
2022/05/23 04:19:39;;;;;;;9.65;2.90;;;;;;;;;;5056370;28;20862;-62
2022/05/23 04:22:05;;;;;;;5.88;3.20;;;;;;;;;;5039794;28;20083;-60
2022/05/23 04:24:34;;;;;;;8.98;3.60;;;;;;;;;;5054531;28;20119;-62
2022/05/23 04:27:00;;;;;;;7.70;3.22;;;;;;;;;;5054277;28;20033;-65
2022/05/23 04:29:27;;;;;;;7.78;3.50;;;;;;;;;;5053576;28;20047;-63
2022/05/23 04:31:54;;;;;;;6.55;3.50;;;;;;;;;;5055877;28;20060;-63
2022/05/23 04:37:09;;;;;;;8.50;3.50;;;;;;;;;;5055678;28;20114;-61
2022/05/23 04:39:35;;;;;;;9.05;3.95;;;;;;;;;;5053584;28;20091;-62
2022/05/23 04:42:03;;;;;;;8.27;3.55;;;;;;;;;;5055428;28;20044;-62
2022/05/23 04:44:30;;;;;;;8.98;3.72;;;;;;;;;;5054120;28;20036;-62
2022/05/23 04:49:44;;;;;;;7.85;4.18;;;;;;;;;;5054693;28;20047;-61
2022/05/23 04:52:15;;;;;;;11.55;4.75;;;;;;;;;;5054811;28;20051;-63
2022/05/23 04:54:43;;;;;;;13.60;4.47;;;;;;;;;;5052948;28;20043;-63
2022/05/23 04:57:10;;;;;;;13.23;4.50;;;;;;;;;;5054869;28;20037;-63
2022/05/23 04:59:37;;;;;;;13.00;4.90;;;;;;;;;;5053641;28;20060;-62
2022/05/23 05:02:04;;;;;;;10.55;4.60;;;;;;;;;;5054689;28;21823;-62
2022/05/23 05:04:31;;;;;;;10.38;4.80;;;;;;;;;;5053322;28;20040;-61
2022/05/23 05:06:58;;;;;;;8.95;4.38;;;;;;;;;;5053106;28;20035;-62
2022/05/23 05:09:25;;;;;;;11.65;5.22;;;;;;;;;;5054265;28;20430;-63
2022/05/23 05:11:52;;;;;;;11.30;4.63;;;;;;;;;;5054812;28;20039;-63
2022/05/23 05:14:18;;;;;;;14.43;5.00;;;;;;;;;;5053939;28;20129;-64
2022/05/23 05:16:45;;;;;;;12.32;4.70;;;;;;;;;;5052623;28;20036;-62
2022/05/23 05:19:12;;;;;;;11.75;5.13;;;;;;;;;;5053486;28;20127;-64
2022/05/23 05:21:39;;;;;;;13.38;4.68;;;;;;;;;;5053843;28;20056;-61
2022/05/23 05:24:06;;;;;;;9.88;5.00;;;;;;;;;;5054358;28;20041;-62
2022/05/23 05:26:32;;;;;;;14.88;4.63;;;;;;;;;;5053644;28;20044;-61
2022/05/23 05:28:59;;;;;;;6.57;4.10;;;;;;;;;;5056653;28;20090;-62
2022/05/23 05:31:29;;;;;;;12.73;3.75;;;;;;;;;;5037707;28;20029;-60
2022/05/23 05:34:03;;;;;;;6.35;3.20;;;;;;;;;;5056796;28;20332;-61
2022/05/23 05:36:32;;;;;;;9.35;3.38;;;;;;;;;;5055417;28;20117;-62
2022/05/23 05:39:03;;;;;;;6.32;3.22;;;;;;;;;;5047189;28;20033;-62
2022/05/23 05:41:45;;;;;;;7.40;2.83;;;;;;;;;;5055544;28;20550;-62
2022/05/23 05:44:17;;;;;;;6.00;2.83;;;;;;;;;;5058826;28;20074;-63
2022/05/23 05:46:46;;;;;;;4.10;1.95;;;;;;;;;;5054858;28;20060;-62
2022/05/23 05:49:16;;;;;;;4.72;2.17;;;;;;;;;;5056059;28;20047;-62
2022/05/23 05:51:44;;;;;;;5.78;2.08;;;;;;;;;;5053426;28;20048;-63
2022/05/23 05:54:13;;;;;;;5.45;2.30;;;;;;;;;;5055622;28;20502;-62
2022/05/23 05:56:43;;;;;;;5.40;2.08;;;;;;;;;;5054478;28;20048;-63
2022/05/23 05:59:10;;;;;;;6.03;2.22;;;;;;;;;;5055378;28;20048;-62
2022/05/23 06:01:37;;;;;;;6.13;2.47;;;;;;;;;;5056206;28;20096;-61
2022/05/23 06:04:03;;;;;;;8.43;2.42;;;;;;;;;;5054542;28;20041;-64
2022/05/23 06:12:00;;;;;;;8.38;2.22;;;;;;;;;;5053507;28;20059;-62
2022/05/23 06:14:27;;;;;;;4.78;1.92;;;;;;;;;;5055221;28;20366;-63
2022/05/23 06:16:54;;;;;;;4.55;2.00;;;;;;;;;;5050456;28;20067;-62
2022/05/23 06:19:21;;;;;;;6.43;2.35;;;;;;;;;;5052055;28;20040;-63
2022/05/23 06:21:47;;;;;;;7.93;3.00;;;;;;;;;;5053406;28;20055;-61
2022/05/23 06:24:14;;;;;;;5.50;2.33;;;;;;;;;;5054518;28;20106;-63
2022/05/23 06:26:41;;;;;;;6.90;2.25;;;;;;;;;;5054308;28;20131;-62
2022/05/23 06:29:08;;;;;;;7.20;1.83;;;;;;;;;;5053025;28;20583;-63
2022/05/23 06:31:34;;;;;;;6.57;1.80;;;;;;;;;;5053178;28;20037;-63
2022/05/23 06:34:01;;;;;;;5.28;1.70;;;;;;;;;;5054322;28;20165;-63
2022/05/23 06:36:28;;;;;;;4.05;2.00;;;;;;;;;;5052169;28;20037;-63
2022/05/23 06:38:54;;;;;;;7.82;1.70;;;;;;;;;;5053853;28;20246;-64
2022/05/23 06:41:21;;;;;;;5.90;1.65;;;;;;;;;;5051541;28;20052;-64
2022/05/23 06:43:48;;;;;;;5.75;1.65;;;;;;;;;;5051943;28;20043;-62
2022/05/23 06:46:15;;;;;;;6.43;2.03;;;;;;;;;;5051573;28;20063;-62
2022/05/23 06:48:42;;;;;;;4.68;1.75;;;;;;;;;;5050805;28;20048;-63
2022/05/23 06:51:09;;;;;;;4.55;1.98;;;;;;;;;;5052441;28;20041;-62
2022/05/23 06:53:36;;;;;;;5.18;1.77;;;;;;;;;;5051504;28;20040;-64
2022/05/23 06:56:03;;;;;;;13.13;1.92;;;;;;;;;;5052114;28;20523;-62
2022/05/23 06:58:30;;;;;;;4.70;1.50;;;;;;;;;;5052008;28;20045;-63
2022/05/23 07:00:57;;;;;;;3.30;1.40;;;;;;;;;;5052135;28;20049;-62
2022/05/23 07:03:23;;;;;;;4.38;1.60;;;;;;;;;;5050953;28;20043;-62
2022/05/23 07:14:11;;;;;;;3.72;1.52;;;;;;;;;;5033415;28;20295;-62
2022/05/23 07:16:37;;;;;;;5.10;2.10;;;;;;;;;;5051638;28;20033;-61
2022/05/23 07:19:04;;;;;;;4.85;1.90;;;;;;;;;;5052285;28;20033;-61
2022/05/23 07:21:31;;;;;;;4.50;1.90;;;;;;;;;;5051761;28;20056;-61
2022/05/23 07:23:58;;;;;;;4.28;1.70;;;;;;;;;;5051969;28;20062;-61
2022/05/23 07:26:25;;;;;;;3.80;1.80;;;;;;;;;;5052397;28;20946;-62
2022/05/23 07:28:53;;;;;;;5.85;1.80;;;;;;;;;;5052647;28;20068;-61
2022/05/23 07:31:20;;;;;;;3.53;1.50;;;;;;;;;;5052211;28;20797;-59
2022/05/23 07:33:47;;;;;;;4.10;1.45;;;;;;;;;;5055397;28;20021;-62
2022/05/23 07:36:15;;;;;;;4.18;2.00;;;;;;;;;;5055278;28;20055;-62
2022/05/23 07:38:41;;;;;;;4.47;2.00;;;;;;;;;;5053248;28;20048;-61
2022/05/23 07:41:09;;;;;;;5.88;1.70;;;;;;;;;;5057990;28;20063;-61
2022/05/23 07:43:36;;;;;;;3.90;1.70;;;;;;;;;;5057088;28;21814;-61
2022/05/23 07:46:09;;;;;;;5.40;1.70;;;;;;;;;;5054858;28;20809;-61
2022/05/23 07:48:40;;;;;;;3.67;1.60;;;;;;;;;;5055945;28;20033;-62
2022/05/23 07:51:07;;;;;;;11.02;1.63;;;;;;;;;;5055433;28;20123;-62
2022/05/23 08:01:50;;;;;;;4.55;1.60;;;;;;;;;;5055307;28;20689;-63
2022/05/23 08:04:17;;;;;;;6.88;1.73;;;;;;;;;;5055466;28;20033;-62
2022/05/23 08:06:44;;;;;;;3.85;1.67;;;;;;;;;;5053545;28;20045;-63
2022/05/23 08:09:11;;;;;;;5.40;1.75;;;;;;;;;;5055498;28;20041;-62
2022/05/23 08:11:39;;;;;;;4.53;1.98;;;;;;;;;;5053692;28;20040;-63
2022/05/23 08:14:06;;;;;;;7.05;1.63;;;;;;;;;;5057549;28;20080;-63
2022/05/23 08:16:33;;;;;;;3.22;1.58;;;;;;;;;;5058983;28;20048;-64
2022/05/23 08:19:01;;;;;;;4.20;1.77;;;;;;;;;;5057292;28;20501;-63
2022/05/23 08:21:28;;;;;;;3.38;1.45;;;;;;;;;;5052978;28;20124;-61
2022/05/23 08:23:55;;;;;;;4.93;1.50;;;;;;;;;;5055220;28;20029;-63
2022/05/23 08:26:22;;;;;;;4.22;2.00;;;;;;;;;;5053905;28;20850;-62
2022/05/23 08:28:49;;;;;;;4.38;1.73;;;;;;;;;;5055698;28;20037;-63
2022/05/23 08:31:15;;;;;;;4.28;1.70;;;;;;;;;;5055714;28;20699;-63
2022/05/23 08:33:42;;;;;;;3.78;1.60;;;;;;;;;;5053875;28;20508;-63
2022/05/23 08:36:10;;;;;;;4.20;1.90;;;;;;;;;;5054220;28;20080;-62
2022/05/23 08:38:37;;;;;;;4.13;1.80;;;;;;;;;;5053123;28;20036;-63
2022/05/23 08:41:09;;;;;;;3.85;1.77;;;;;;;;;;5055623;28;20629;-64
2022/05/23 08:43:41;;;;;;;4.67;1.80;;;;;;;;;;5055117;28;20056;-63
2022/05/23 08:46:10;;;;;;;4.68;1.90;;;;;;;;;;5054473;28;20068;-64
2022/05/23 08:48:44;;;;;;;5.13;1.88;;;;;;;;;;5054521;28;20683;-63
2022/05/23 08:51:17;;;;;;;4.55;1.77;;;;;;;;;;5055316;28;20060;-63
2022/05/23 08:53:53;;;;;;;5.20;1.83;;;;;;;;;;5053854;28;20045;-64
2022/05/23 08:56:22;;;;;;;3.85;1.77;;;;;;;;;;5054371;28;20045;-62
2022/05/23 08:58:54;;;;;;;3.83;1.70;;;;;;;;;;5054428;28;21671;-63
2022/05/23 09:01:27;;;;;;;3.55;1.40;;;;;;;;;;5053859;28;20049;-62
2022/05/23 09:03:53;;;;;;;5.55;1.90;;;;;;;;;;5054156;28;20121;-61
2022/05/23 09:06:31;;;;;;;3.50;1.45;;;;;;;;;;5052677;28;20466;-61
2022/05/23 09:09:00;;;;;;;4.45;1.80;;;;;;;;;;5053623;28;20086;-63
2022/05/23 09:11:34;;;;;;;5.05;1.55;;;;;;;;;;5053685;28;20048;-63
2022/05/23 09:14:01;;;;;;;5.93;1.83;;;;;;;;;;5054076;28;20494;-63
2022/05/23 09:16:31;;;;;;;6.28;1.50;;;;;;;;;;5051758;28;21866;-63
2022/05/23 09:19:02;;;;;;;6.45;2.03;;;;;;;;;;5054804;28;20155;-62
2022/05/23 09:24:16;;;;;;;10.43;2.58;;;;;;;;;;5052458;28;20061;-63
2022/05/23 09:26:44;;;;;;;7.55;1.83;;;;;;;;;;5051593;28;20050;-63
2022/05/23 09:29:10;;;;;;;7.75;2.20;;;;;;;;;;5053906;28;20040;-62
2022/05/23 09:31:51;;;;;;;5.82;1.80;;;;;;;;;;5051913;28;20040;-63
2022/05/23 09:34:29;;;;;;;5.10;1.92;;;;;;;;;;5051320;28;20047;-62
2022/05/23 09:36:57;;;;;;;4.32;1.73;;;;;;;;;;5052139;28;20032;-62
2022/05/23 09:39:25;;;;;;;5.45;1.95;;;;;;;;;;5052428;28;20044;-63
2022/05/23 09:47:46;;;;;;;6.30;1.75;;;;;;;;;;5038145;28;20048;-63
2022/05/23 09:50:28;;;;;;;4.13;1.80;;;;;;;;;;5032580;28;20053;-62
2022/05/23 09:52:57;;;;;;;7.15;1.90;;;;;;;;;;5052707;28;21806;-63
2022/05/23 09:55:31;;;;;;;3.92;1.80;;;;;;;;;;5051646;28;20110;-63
2022/05/23 09:58:06;;;;;;;5.18;2.08;;;;;;;;;;5053569;28;20128;-62
2022/05/23 10:00:35;;;;;;;4.72;2.00;;;;;;;;;;5051097;28;20048;-62
2022/05/23 10:03:01;;;;;;;5.93;1.90;;;;;;;;;;5051756;28;20028;-62
2022/05/23 10:05:33;;;;;;;3.90;1.90;;;;;;;;;;5051699;28;20043;-62
2022/05/23 10:08:01;;;;;;;4.93;2.00;;;;;;;;;;5053794;28;20588;-63
2022/05/23 10:10:31;;;;;;;4.03;1.83;;;;;;;;;;5038705;28;20044;-64
2022/05/23 10:13:16;;;;;;;5.28;1.75;;;;;;;;;;5053480;28;20045;-64
2022/05/23 10:15:54;;;;;;;5.05;1.98;;;;;;;;;;5053367;28;20044;-63
2022/05/23 10:18:25;;;;;;;4.70;2.00;;;;;;;;;;5051666;28;20073;-63
2022/05/23 10:20:52;;;;;;;6.78;2.28;;;;;;;;;;5053878;28;20058;-64
2022/05/23 10:23:21;;;;;;;4.50;1.90;;;;;;;;;;5053439;28;20044;-63
2022/05/23 10:25:56;;;;;;;9.00;2.50;;;;;;;;;;5053481;28;20440;-62
2022/05/23 10:28:28;;;;;;;4.90;1.90;;;;;;;;;;5054148;28;20124;-62
2022/05/23 10:31:01;;;;;;;5.00;2.03;;;;;;;;;;5055757;28;20898;-63
2022/05/23 10:33:29;;;;;;;10.80;2.10;;;;;;;;;;5054368;28;20048;-63
2022/05/23 10:36:02;;;;;;;5.13;2.05;;;;;;;;;;5037814;28;20789;-64
2022/05/23 10:44:07;;;;;;;8.05;2.10;;;;;;;;;;5054748;28;20090;-63
2022/05/23 10:46:36;;;;;;;6.72;2.45;;;;;;;;;;5048480;28;20139;-63
2022/05/23 10:49:02;;;;;;;5.32;2.10;;;;;;;;;;5015364;28;20048;-63
2022/05/23 10:51:42;;;;;;;5.28;1.98;;;;;;;;;;5029317;28;20052;-63
2022/05/23 10:54:20;;;;;;;9.02;2.13;;;;;;;;;;5031542;28;20510;-62
2022/05/23 10:56:53;;;;;;;5.38;2.00;;;;;;;;;;5031009;28;20041;-63
2022/05/23 10:59:38;;;;;;;5.40;2.10;;;;;;;;;;5031908;28;20053;-63
2022/05/23 11:02:11;;;;;;;5.85;2.05;;;;;;;;;;5030914;28;20091;-63
2022/05/23 11:04:43;;;;;;;3.73;1.73;;;;;;;;;;5030604;28;20388;-62
2022/05/23 11:07:19;;;;;;;5.72;2.25;;;;;;;;;;5031703;28;20416;-63
2022/05/23 11:09:51;;;;;;;4.85;2.15;;;;;;;;;;5031212;28;20048;-62
2022/05/23 11:12:21;;;;;;;5.03;2.22;;;;;;;;;;5033170;28;20482;-62
2022/05/23 11:14:47;;;;;;;5.85;2.53;;;;;;;;;;5030406;28;20134;-62
2022/05/23 11:17:28;;;;;;;5.00;2.10;;;;;;;;;;5031803;28;20045;-62
2022/05/23 11:20:03;;;;;;;6.55;2.20;;;;;;;;;;5031463;28;20049;-62
2022/05/23 11:22:34;;;;;;;11.02;2.35;;;;;;;;;;5031726;28;20037;-63
2022/05/23 11:25:10;;;;;;;11.73;2.50;;;;;;;;;;5032260;28;20045;-63
2022/05/23 11:36:09;;;;;;;6.80;2.30;;;;;;;;;;5031589;28;20053;-63
2022/05/23 11:38:42;;;;;;;16.02;2.92;;;;;;;;;;5029647;28;20064;-61
2022/05/23 11:41:09;;;;;;;;;;;;;;;;;;5032147;28;20056;-63
2022/05/23 11:43:35;;;;;;;10.45;2.28;;;;;;;;;;5028399;28;20645;-62
2022/05/23 11:46:03;;;;;;;8.43;2.58;;;;;;;;;;5030223;28;20119;-64
2022/05/23 11:48:36;;;;;;;11.38;2.72;;;;;;;;;;5021311;28;20102;-62
2022/05/23 11:51:26;;;;;;;7.50;2.85;;;;;;;;;;5011090;28;20041;-62
2022/05/23 11:54:06;;;;;;;7.28;2.60;;;;;;;;;;5050269;28;20051;-62
2022/05/23 11:56:51;;;;;;;6.28;2.40;;;;;;;;;;5036165;28;20455;-63
2022/05/23 11:59:24;;;;;;;7.05;2.58;;;;;;;;;;5051106;28;20094;-63
2022/05/23 12:02:12;;;;;;;7.97;2.28;;;;;;;;;;5050834;28;21998;-62
2022/05/23 12:04:45;;;;;;;7.53;2.35;;;;;;;;;;5052476;28;20066;-61
2022/05/23 12:07:31;;;;;;;8.10;2.35;;;;;;;;;;5053140;28;20075;-62
2022/05/23 12:10:16;;;;;;;6.97;2.08;;;;;;;;;;5052474;28;20140;-62
2022/05/23 12:12:47;;;;;;;8.82;2.42;;;;;;;;;;5051252;28;20509;-62
2022/05/23 12:15:33;;;;;;;5.05;2.03;;;;;;;;;;5055580;28;20497;-63
2022/05/23 12:18:03;;;;;;;6.80;2.60;;;;;;;;;;5052635;28;20044;-62
2022/05/23 12:20:31;;;;;;;4.38;2.08;;;;;;;;;;5051068;28;20092;-62
2022/05/23 12:23:21;;;;;;;5.50;2.00;;;;;;;;;;5052870;28;20047;-62
2022/05/23 12:26:05;;;;;;;5.07;1.88;;;;;;;;;;5041712;28;20044;-63
2022/05/23 12:28:42;;;;;;;4.57;2.03;;;;;;;;;;5052505;28;20044;-63
2022/05/23 12:31:10;;;;;;;4.47;1.88;;;;;;;;;;5056995;28;20063;-62
2022/05/23 12:33:39;;;;;;;4.45;1.92;;;;;;;;;;5055628;28;20049;-62
2022/05/23 12:36:08;;;;;;;7.47;2.05;;;;;;;;;;5055170;28;20489;-62
2022/05/23 12:38:34;;;;;;;5.88;2.38;;;;;;;;;;5054819;28;20722;-62
2022/05/23 12:41:16;;;;;;;6.95;2.13;;;;;;;;;;5056138;28;20046;-59
2022/05/23 12:44:02;;;;;;;4.30;1.77;;;;;;;;;;5051873;28;20096;-62
2022/05/23 12:46:48;;;;;;;5.32;1.80;;;;;;;;;;5009079;28;20060;-63
2022/05/23 12:49:26;;;;;;;6.03;1.98;;;;;;;;;;5037242;28;20040;-63
2022/05/23 12:52:17;;;;;;;10.48;2.38;;;;;;;;;;5034176;28;20052;-64
2022/05/23 12:55:02;;;;;;;10.23;2.47;;;;;;;;;;5035286;28;20052;-64
2022/05/23 12:57:44;;;;;;;4.07;1.95;;;;;;;;;;5033015;28;20087;-62
2022/05/23 13:00:13;;;;;;;9.35;2.08;;;;;;;;;;5034597;28;21332;-62
2022/05/23 13:02:52;;;;;;;7.68;2.00;;;;;;;;;;5034455;28;25808;-62
2022/05/23 13:05:21;;;;;;;9.32;2.28;;;;;;;;;;5034577;28;20087;-63
2022/05/23 13:08:12;;;;;;;4.75;1.90;;;;;;;;;;5033379;28;20712;-63
2022/05/23 13:10:41;;;;;;;4.18;1.88;;;;;;;;;;5034320;28;20067;-63
2022/05/23 13:13:14;;;;;;;6.47;1.80;;;;;;;;;;5035396;28;20051;-63
2022/05/23 13:15:41;;;;;;;10.38;2.20;;;;;;;;;;5032395;28;20043;-62
2022/05/23 13:23:40;;;;;;;4.05;1.67;;;;;;;;;;5033422;28;20468;-62
2022/05/23 13:26:07;;;;;;;4.43;1.80;;;;;;;;;;5033920;28;20150;-63
2022/05/23 13:28:39;;;;;;;5.10;1.73;;;;;;;;;;5031754;28;21008;-63
2022/05/23 13:31:21;;;;;;;4.45;1.63;;;;;;;;;;5033605;28;20038;-61
2022/05/23 13:33:48;;;;;;;3.90;1.40;;;;;;;;;;5034448;28;20057;-62
2022/05/23 13:36:15;;;;;;;5.35;1.90;;;;;;;;;;5033261;28;20071;-62
2022/05/23 13:38:43;;;;;;;3.50;1.58;;;;;;;;;;5033653;28;20125;-62
2022/05/23 13:41:26;;;;;;;3.17;1.30;;;;;;;;;;5036526;28;20119;-63
2022/05/23 13:43:52;;;;;;;11.85;2.17;;;;;;;;;;5035003;28;20245;-62
2022/05/23 13:46:24;;;;;;;4.57;1.52;;;;;;;;;;5040539;28;20052;-64
2022/05/23 13:49:00;;;;;;;4.55;1.55;;;;;;;;;;5023702;28;20119;-63
2022/05/23 13:51:31;;;;;;;3.90;1.52;;;;;;;;;;5051682;28;20071;-63
2022/05/23 13:54:00;;;;;;;5.35;1.77;;;;;;;;;;5054120;28;20466;-63
2022/05/23 13:56:28;;;;;;;8.93;1.90;;;;;;;;;;5051646;28;20055;-62
2022/05/23 13:58:57;;;;;;;6.03;1.90;;;;;;;;;;5046749;28;20048;-62
2022/05/23 14:01:26;;;;;;;8.02;1.83;;;;;;;;;;5054424;28;20063;-62
2022/05/23 14:04:12;;;;;;;6.20;1.90;;;;;;;;;;5055300;28;20227;-63
2022/05/23 14:06:43;;;;;;;8.70;1.80;;;;;;;;;;5054893;28;20277;-63
2022/05/23 14:09:10;;;;;;;6.65;2.05;;;;;;;;;;5056550;28;20094;-63
2022/05/23 14:11:38;;;;;;;7.63;1.80;;;;;;;;;;5056284;28;20106;-64
2022/05/23 14:14:23;;;;;;;6.38;1.70;;;;;;;;;;5055187;28;20068;-63
2022/05/23 14:17:00;;;;;;;7.35;1.77;;;;;;;;;;5051143;28;20112;-63
2022/05/23 14:19:40;;;;;;;4.95;1.50;;;;;;;;;;5051892;28;20049;-63
2022/05/23 14:22:09;;;;;;;4.15;1.50;;;;;;;;;;5054054;28;20052;-63
2022/05/23 14:24:46;;;;;;;4.18;1.70;;;;;;;;;;5054285;28;20072;-63
2022/05/23 14:27:13;;;;;;;5.05;1.58;;;;;;;;;;5054826;28;20068;-62
2022/05/23 14:29:40;;;;;;;4.53;1.50;;;;;;;;;;5053761;28;21786;-62
2022/05/23 14:32:35;;;;;;;3.80;1.60;;;;;;;;;;5054833;28;20029;-62
2022/05/23 14:35:12;;;;;;;4.07;1.20;;;;;;;;;;5032202;28;20121;-62
2022/05/23 14:37:41;;;;;;;6.03;1.42;;;;;;;;;;5051420;28;20041;-63
2022/05/23 14:40:10;;;;;;;4.40;1.40;;;;;;;;;;5051786;28;20390;-62
2022/05/23 14:42:38;;;;;;;4.68;1.20;;;;;;;;;;5034696;28;20052;-59
2022/05/23 14:45:05;;;;;;;3.35;1.27;;;;;;;;;;5053062;28;20036;-60
2022/05/23 14:47:32;;;;;;;3.10;1.08;;;;;;;;;;5051370;28;20922;-60
2022/05/23 14:50:18;;;;;;;4.30;1.27;;;;;;;;;;5053056;28;20071;-61
2022/05/23 14:55:42;;;;;;;4.50;1.73;;;;;;;;;;5051567;28;20125;-64
2022/05/23 15:01:01;;;;;;;4.05;1.40;;;;;;;;;;5054648;28;20110;-61
2022/05/23 15:03:42;;;;;;;3.15;1.40;;;;;;;;;;5054267;28;20029;-62
2022/05/23 15:06:09;;;;;;;3.95;1.17;;;;;;;;;;5053287;28;20040;-61
2022/05/23 15:08:35;;;;;;;4.13;1.48;;;;;;;;;;5054498;28;20043;-62
2022/05/23 15:11:03;;;;;;;3.45;1.15;;;;;;;;;;5056034;28;20079;-62
2022/05/23 15:13:30;;;;;;;4.28;1.50;;;;;;;;;;5054875;28;20167;-61
2022/05/23 15:16:03;;;;;;;3.85;1.30;;;;;;;;;;5053609;28;20538;-61
2022/05/23 15:18:31;;;;;;;4.88;1.17;;;;;;;;;;5051410;28;20044;-61
2022/05/23 15:20:59;;;;;;;4.57;1.35;;;;;;;;;;5038985;28;20056;-62
2022/05/23 15:23:26;;;;;;;3.63;1.30;;;;;;;;;;5053393;28;20036;-63
2022/05/23 15:25:53;;;;;;;5.38;1.30;;;;;;;;;;5053599;28;20114;-63
2022/05/23 15:28:20;;;;;;;3.47;1.30;;;;;;;;;;5043577;28;20149;-62
2022/05/23 15:30:48;;;;;;;5.95;1.63;;;;;;;;;;5052097;28;20067;-63
2022/05/23 15:33:15;;;;;;;3.10;1.20;;;;;;;;;;5040459;28;20032;-63
2022/05/23 15:35:42;;;;;;;3.05;1.35;;;;;;;;;;5052486;28;20577;-63
2022/05/23 15:38:08;;;;;;;3.20;1.20;;;;;;;;;;5051910;28;20032;-62
2022/05/23 15:40:37;;;;;;;3.20;1.27;;;;;;;;;;5049921;28;20408;-64
2022/05/23 15:43:04;;;;;;;3.47;1.10;;;;;;;;;;5052087;28;20512;-63
2022/05/23 15:45:33;;;;;;;2.40;1.02;;;;;;;;;;5050084;28;20045;-62
2022/05/23 15:48:04;;;;;;;7.47;1.40;;;;;;;;;;5050409;28;20311;-64
2022/05/23 15:50:31;;;;;;;6.03;1.20;;;;;;;;;;5050881;28;20044;-64
2022/05/23 15:52:58;;;;;;;2.75;1.10;;;;;;;;;;5055190;28;20032;-64
2022/05/23 15:55:25;;;;;;;3.00;1.05;;;;;;;;;;5055701;28;20575;-64
2022/05/23 15:57:52;;;;;;;3.03;1.10;;;;;;;;;;5055892;28;20163;-64
2022/05/23 16:00:21;;;;;;;2.60;1.00;;;;;;;;;;5058018;28;20047;-63
2022/05/23 16:02:50;;;;;;;3.15;1.13;;;;;;;;;;5059867;28;20068;-64
2022/05/23 16:05:16;;;;;;;2.70;0.90;;;;;;;;;;5060099;28;20041;-63
2022/05/23 16:07:44;;;;;;;4.78;1.50;;;;;;;;;;5058454;28;20025;-63
2022/05/23 16:10:11;;;;;;;5.00;1.05;;;;;;;;;;5044501;28;20919;-63
2022/05/23 16:12:39;;;;;;;2.63;0.90;;;;;;;;;;5059661;28;20186;-63
2022/05/23 16:15:08;;;;;;;3.78;0.90;;;;;;;;;;5058512;28;20074;-62